SAS19K EFHK-ESGG
Flight info
| Callsign | SAS19K |
|---|---|
| Flight time | 1h 12m |
| Altitude | 36000 |
| Route | KUVEM Y366 USITU DCT TUSNI DCT MOXAM |
| Aircraft | CRJ9/M-SDFGIRWY/S |
Departure
| Time | 2026-04-20 06:27 |
|---|---|
| Airport | Helsinki Vantaa Airport (EFHK) |
Arrival
| Time | 2026-04-20 07:39 |
|---|---|
| Airport | Göteborg Landvetter Airport (ESGG) |
| Time | Latitude | Longitude | Altitude | Speed | Heading |
|---|---|---|---|---|---|
| 2026-04-20 06:12 | 60.31877 | 24.96533 | 165 ft | 0 kts | 137° |
| 2026-04-20 06:17 | 60.31893 | 24.96504 | 165 ft | 4 kts | 136° |
| 2026-04-20 06:17 | 60.31911 | 24.96471 | 165 ft | 4 kts | 152° |
| 2026-04-20 06:17 | 60.31928 | 24.96475 | 165 ft | 4 kts | 223° |
| 2026-04-20 06:18 | 60.31942 | 24.96506 | 165 ft | 4 kts | 228° |
| 2026-04-20 06:18 | 60.31960 | 24.96546 | 165 ft | 4 kts | 227° |
| 2026-04-20 06:18 | 60.31978 | 24.96586 | 165 ft | 4 kts | 227° |
| 2026-04-20 06:18 | 60.31986 | 24.96602 | 165 ft | 0 kts | 227° |
| 2026-04-20 06:20 | 60.31986 | 24.96601 | 165 ft | 0 kts | 227° |
| 2026-04-20 06:20 | 60.31984 | 24.96598 | 165 ft | 1 kts | 227° |
| 2026-04-20 06:20 | 60.31979 | 24.96588 | 165 ft | 2 kts | 223° |
| 2026-04-20 06:21 | 60.31960 | 24.96553 | 165 ft | 5 kts | 224° |
| 2026-04-20 06:21 | 60.31926 | 24.96482 | 165 ft | 9 kts | 227° |
| 2026-04-20 06:21 | 60.31879 | 24.96376 | 165 ft | 11 kts | 229° |
| 2026-04-20 06:21 | 60.31852 | 24.96234 | 165 ft | 11 kts | 277° |
| 2026-04-20 06:22 | 60.31888 | 24.96102 | 165 ft | 11 kts | 317° |
| 2026-04-20 06:22 | 60.31927 | 24.95992 | 167 ft | 9 kts | 270° |
| 2026-04-20 06:22 | 60.31901 | 24.95897 | 168 ft | 9 kts | 228° |
| 2026-04-20 06:22 | 60.31847 | 24.95780 | 167 ft | 13 kts | 227° |
| 2026-04-20 06:23 | 60.31777 | 24.95629 | 168 ft | 16 kts | 227° |
| 2026-04-20 06:23 | 60.31694 | 24.95446 | 169 ft | 19 kts | 227° |
| 2026-04-20 06:23 | 60.31595 | 24.95226 | 168 ft | 23 kts | 229° |
| 2026-04-20 06:23 | 60.31480 | 24.94973 | 166 ft | 26 kts | 227° |
| 2026-04-20 06:24 | 60.31356 | 24.94697 | 160 ft | 28 kts | 227° |
| 2026-04-20 06:24 | 60.31222 | 24.94401 | 157 ft | 28 kts | 227° |
| 2026-04-20 06:24 | 60.31087 | 24.94105 | 159 ft | 29 kts | 227° |
| 2026-04-20 06:24 | 60.30957 | 24.93819 | 159 ft | 27 kts | 227° |
| 2026-04-20 06:25 | 60.30850 | 24.93584 | 156 ft | 13 kts | 227° |
| 2026-04-20 06:25 | 60.30828 | 24.93425 | 155 ft | 13 kts | 313° |
| 2026-04-20 06:25 | 60.30897 | 24.93351 | 158 ft | 10 kts | 338° |
| 2026-04-20 06:25 | 60.30947 | 24.93305 | 160 ft | 7 kts | 330° |
| 2026-04-20 06:26 | 60.30984 | 24.93317 | 160 ft | 1 kts | 48° |
| 2026-04-20 06:26 | 60.30997 | 24.93346 | 159 ft | 16 kts | 48° |
| 2026-04-20 06:26 | 60.31240 | 24.93877 | 156 ft | 88 kts | 47° |
| 2026-04-20 06:26 | 60.31796 | 24.95109 | 173 ft | 145 kts | 47° |
| 2026-04-20 06:27 | 60.32537 | 24.96729 | 680 ft | 155 kts | 46° |
| 2026-04-20 06:27 | 60.33269 | 24.98255 | 1622 ft | 149 kts | 45° |
| 2026-04-20 06:27 | 60.34011 | 24.99734 | 2366 ft | 156 kts | 45° |
| 2026-04-20 06:27 | 60.34828 | 25.01320 | 2912 ft | 167 kts | 46° |
| 2026-04-20 06:28 | 60.35652 | 25.03102 | 3327 ft | 181 kts | 49° |
| 2026-04-20 06:28 | 60.36546 | 25.05173 | 3481 ft | 212 kts | 50° |
| 2026-04-20 06:28 | 60.37540 | 25.07600 | 3941 ft | 231 kts | 51° |
| 2026-04-20 06:28 | 60.38586 | 25.10190 | 4622 ft | 241 kts | 50° |
| 2026-04-20 06:29 | 60.39903 | 25.12187 | 5478 ft | 248 kts | 25° |
| 2026-04-20 06:29 | 60.41585 | 25.13014 | 6392 ft | 251 kts | 11° |
| 2026-04-20 06:29 | 60.43369 | 25.13196 | 7097 ft | 260 kts | 4° |
| 2026-04-20 06:29 | 60.45181 | 25.13170 | 7917 ft | 262 kts | 3° |
| 2026-04-20 06:30 | 60.47011 | 25.12910 | 8684 ft | 270 kts | 349° |
| 2026-04-20 06:30 | 60.48628 | 25.10847 | 9436 ft | 287 kts | 314° |
| 2026-04-20 06:30 | 60.49726 | 25.07373 | 9937 ft | 303 kts | 301° |
| 2026-04-20 06:30 | 60.50595 | 25.03516 | 10807 ft | 306 kts | 294° |
| 2026-04-20 06:31 | 60.50971 | 24.99069 | 11011 ft | 334 kts | 273° |
| 2026-04-20 06:31 | 60.50917 | 24.94263 | 11330 ft | 352 kts | 270° |
| 2026-04-20 06:31 | 60.50794 | 24.89186 | 11694 ft | 367 kts | 266° |
| 2026-04-20 06:31 | 60.50019 | 24.84192 | 12251 ft | 378 kts | 242° |
| 2026-04-20 06:32 | 60.48562 | 24.79697 | 12898 ft | 383 kts | 234° |
| 2026-04-20 06:32 | 60.46958 | 24.75329 | 13561 ft | 388 kts | 233° |
| 2026-04-20 06:32 | 60.45354 | 24.70979 | 14191 ft | 393 kts | 234° |
| 2026-04-20 06:32 | 60.43763 | 24.66432 | 14786 ft | 396 kts | 236° |
| 2026-04-20 06:33 | 60.42209 | 24.61777 | 15379 ft | 400 kts | 236° |
| 2026-04-20 06:33 | 60.40649 | 24.57066 | 15989 ft | 403 kts | 236° |
| 2026-04-20 06:33 | 60.39083 | 24.52408 | 16560 ft | 407 kts | 236° |
| 2026-04-20 06:33 | 60.37476 | 24.47660 | 17142 ft | 410 kts | 236° |
| 2026-04-20 06:34 | 60.35855 | 24.42877 | 17708 ft | 413 kts | 236° |
| 2026-04-20 06:34 | 60.34217 | 24.38057 | 18280 ft | 417 kts | 236° |
| 2026-04-20 06:34 | 60.30925 | 24.28391 | 19294 ft | 423 kts | 235° |
| 2026-04-20 06:35 | 60.29246 | 24.23476 | 19714 ft | 427 kts | 235° |
| 2026-04-20 06:35 | 60.27554 | 24.18531 | 20161 ft | 429 kts | 235° |
| 2026-04-20 06:35 | 60.25850 | 24.13562 | 20604 ft | 432 kts | 235° |
| 2026-04-20 06:35 | 60.24130 | 24.08563 | 21010 ft | 435 kts | 235° |
| 2026-04-20 06:36 | 60.22407 | 24.03566 | 21522 ft | 435 kts | 235° |
| 2026-04-20 06:36 | 60.20669 | 23.98538 | 21948 ft | 437 kts | 235° |
| 2026-04-20 06:36 | 60.19029 | 23.93456 | 22299 ft | 440 kts | 244° |
| 2026-04-20 06:36 | 60.18034 | 23.87647 | 22695 ft | 440 kts | 258° |
| 2026-04-20 06:37 | 60.17429 | 23.81601 | 23074 ft | 442 kts | 262° |
| 2026-04-20 06:37 | 60.16869 | 23.75504 | 23449 ft | 445 kts | 261° |
| 2026-04-20 06:37 | 60.16257 | 23.69387 | 23810 ft | 447 kts | 260° |
| 2026-04-20 06:37 | 60.15620 | 23.63241 | 24128 ft | 450 kts | 260° |
| 2026-04-20 06:38 | 60.14980 | 23.57143 | 24422 ft | 452 kts | 259° |
| 2026-04-20 06:38 | 60.14325 | 23.50940 | 24710 ft | 454 kts | 259° |
| 2026-04-20 06:38 | 60.13668 | 23.44722 | 25005 ft | 457 kts | 259° |
| 2026-04-20 06:38 | 60.13000 | 23.38470 | 25273 ft | 459 kts | 259° |
| 2026-04-20 06:39 | 60.12327 | 23.32199 | 25546 ft | 461 kts | 259° |
| 2026-04-20 06:39 | 60.11651 | 23.25887 | 25814 ft | 463 kts | 259° |
| 2026-04-20 06:39 | 60.10983 | 23.19644 | 26116 ft | 462 kts | 259° |
| 2026-04-20 06:39 | 60.10309 | 23.13307 | 26376 ft | 464 kts | 259° |
| 2026-04-20 06:40 | 60.09634 | 23.06938 | 26630 ft | 466 kts | 259° |
| 2026-04-20 06:40 | 60.08957 | 23.00562 | 26876 ft | 468 kts | 259° |
| 2026-04-20 06:40 | 60.08288 | 22.94242 | 27096 ft | 470 kts | 259° |
| 2026-04-20 06:40 | 60.07606 | 22.87822 | 27330 ft | 471 kts | 259° |
| 2026-04-20 06:41 | 60.06921 | 22.81367 | 27550 ft | 473 kts | 259° |
| 2026-04-20 06:41 | 60.06245 | 22.74984 | 27757 ft | 475 kts | 259° |
| 2026-04-20 06:41 | 60.05555 | 22.68491 | 27987 ft | 476 kts | 259° |
| 2026-04-20 06:41 | 60.04862 | 22.61982 | 28185 ft | 478 kts | 259° |
| 2026-04-20 06:42 | 60.04169 | 22.55464 | 28390 ft | 479 kts | 259° |
| 2026-04-20 06:42 | 60.03472 | 22.48903 | 28576 ft | 481 kts | 259° |
| 2026-04-20 06:42 | 60.02783 | 22.42427 | 28733 ft | 483 kts | 259° |
| 2026-04-20 06:42 | 60.02084 | 22.35842 | 29029 ft | 481 kts | 259° |
| 2026-04-20 06:43 | 60.01383 | 22.29285 | 29229 ft | 482 kts | 259° |
| 2026-04-20 06:43 | 60.00677 | 22.22695 | 29391 ft | 484 kts | 259° |
| 2026-04-20 06:43 | 59.99968 | 22.16105 | 29564 ft | 485 kts | 259° |
| 2026-04-20 06:43 | 59.99266 | 22.09585 | 29709 ft | 486 kts | 259° |
| 2026-04-20 06:44 | 59.98548 | 22.02930 | 29865 ft | 487 kts | 259° |
| 2026-04-20 06:44 | 59.97832 | 21.96296 | 30013 ft | 488 kts | 259° |
| 2026-04-20 06:44 | 59.97121 | 21.89729 | 30165 ft | 489 kts | 259° |
| 2026-04-20 06:44 | 59.96403 | 21.83107 | 30529 ft | 485 kts | 259° |
| 2026-04-20 06:45 | 59.95688 | 21.76518 | 30822 ft | 481 kts | 259° |
| 2026-04-20 06:45 | 59.94986 | 21.70055 | 30978 ft | 482 kts | 259° |
| 2026-04-20 06:45 | 59.94272 | 21.63498 | 31108 ft | 483 kts | 259° |
| 2026-04-20 06:45 | 59.93562 | 21.56961 | 31262 ft | 482 kts | 259° |
| 2026-04-20 06:46 | 59.93091 | 21.52633 | 31336 ft | 483 kts | 259° |
| 2026-04-20 06:46 | 59.92375 | 21.46057 | 31440 ft | 484 kts | 259° |
| 2026-04-20 06:46 | 59.91425 | 21.37346 | 31579 ft | 485 kts | 259° |
| 2026-04-20 06:46 | 59.90708 | 21.30774 | 31705 ft | 485 kts | 259° |
| 2026-04-20 06:47 | 59.89995 | 21.24267 | 32097 ft | 479 kts | 259° |
| 2026-04-20 06:47 | 59.89523 | 21.19960 | 32296 ft | 476 kts | 259° |
| 2026-04-20 06:47 | 59.88815 | 21.13512 | 32524 ft | 475 kts | 259° |
| 2026-04-20 06:47 | 59.88105 | 21.07061 | 32676 ft | 475 kts | 259° |
| 2026-04-20 06:48 | 59.87396 | 21.00623 | 32837 ft | 475 kts | 259° |
| 2026-04-20 06:48 | 59.86687 | 20.94202 | 32998 ft | 475 kts | 259° |
| 2026-04-20 06:48 | 59.85987 | 20.87867 | 33139 ft | 474 kts | 258° |
| 2026-04-20 06:48 | 59.85276 | 20.81443 | 33287 ft | 474 kts | 258° |
| 2026-04-20 06:49 | 59.84571 | 20.75040 | 33469 ft | 473 kts | 258° |
| 2026-04-20 06:49 | 59.83866 | 20.68643 | 33618 ft | 473 kts | 258° |
| 2026-04-20 06:49 | 59.83160 | 20.62239 | 33745 ft | 473 kts | 258° |
| 2026-04-20 06:49 | 59.82455 | 20.55851 | 33876 ft | 473 kts | 258° |
| 2026-04-20 06:50 | 59.81748 | 20.49450 | 34032 ft | 473 kts | 258° |
| 2026-04-20 06:50 | 59.81050 | 20.43151 | 34178 ft | 473 kts | 258° |
| 2026-04-20 06:50 | 59.80341 | 20.36749 | 34313 ft | 472 kts | 258° |
| 2026-04-20 06:50 | 59.79631 | 20.30367 | 34454 ft | 472 kts | 258° |
| 2026-04-20 06:51 | 59.78920 | 20.23969 | 34537 ft | 473 kts | 258° |
| 2026-04-20 06:51 | 59.78209 | 20.17598 | 34676 ft | 473 kts | 258° |
| 2026-04-20 06:51 | 59.77493 | 20.11254 | 34889 ft | 469 kts | 258° |
| 2026-04-20 06:52 | 59.76059 | 19.98677 | 35138 ft | 468 kts | 258° |
| 2026-04-20 06:52 | 59.74619 | 19.86041 | 35336 ft | 469 kts | 258° |
| 2026-04-20 06:52 | 59.73908 | 19.79814 | 35465 ft | 468 kts | 258° |
| 2026-04-20 06:53 | 59.73185 | 19.73508 | 35539 ft | 469 kts | 258° |
| 2026-04-20 06:53 | 59.72463 | 19.67206 | 35662 ft | 468 kts | 258° |
| 2026-04-20 06:53 | 59.71738 | 19.60902 | 35787 ft | 468 kts | 258° |
| 2026-04-20 06:54 | 59.70284 | 19.48284 | 35982 ft | 468 kts | 258° |
| 2026-04-20 06:54 | 59.69827 | 19.42004 | 36027 ft | 467 kts | 272° |
| 2026-04-20 06:54 | 59.70252 | 19.35681 | 36151 ft | 460 kts | 290° |
| 2026-04-20 06:54 | 59.71545 | 19.29962 | 36306 ft | 451 kts | 307° |
| 2026-04-20 06:55 | 59.73461 | 19.25091 | 36384 ft | 449 kts | 310° |
| 2026-04-20 06:55 | 59.74976 | 19.19609 | 36410 ft | 457 kts | 291° |
| 2026-04-20 06:55 | 59.75608 | 19.13456 | 36435 ft | 464 kts | 274° |
| 2026-04-20 06:55 | 59.75329 | 19.07047 | 36451 ft | 469 kts | 257° |
| 2026-04-20 06:56 | 59.74492 | 19.00765 | 36469 ft | 471 kts | 256° |
| 2026-04-20 06:56 | 59.72672 | 18.88179 | 36451 ft | 477 kts | 253° |
| 2026-04-20 06:57 | 59.70619 | 18.75663 | 36437 ft | 483 kts | 251° |
| 2026-04-20 06:57 | 59.68309 | 18.63078 | 36432 ft | 487 kts | 250° |
| 2026-04-20 06:58 | 59.65960 | 18.50483 | 36409 ft | 485 kts | 250° |
| 2026-04-20 06:58 | 59.63637 | 18.38109 | 36401 ft | 480 kts | 250° |
| 2026-04-20 06:59 | 59.61304 | 18.25762 | 36396 ft | 478 kts | 250° |
| 2026-04-20 06:59 | 59.58968 | 18.13460 | 36397 ft | 478 kts | 250° |
| 2026-04-20 07:00 | 59.56616 | 18.01165 | 36394 ft | 478 kts | 250° |
| 2026-04-20 07:00 | 59.54267 | 17.88961 | 36399 ft | 478 kts | 250° |
| 2026-04-20 07:01 | 59.51908 | 17.76779 | 36403 ft | 478 kts | 249° |
| 2026-04-20 07:01 | 59.49523 | 17.64533 | 36406 ft | 478 kts | 249° |
| 2026-04-20 07:02 | 59.47128 | 17.52324 | 36405 ft | 478 kts | 249° |
| 2026-04-20 07:02 | 59.44738 | 17.40211 | 36405 ft | 478 kts | 249° |
| 2026-04-20 07:03 | 59.42320 | 17.28025 | 36412 ft | 477 kts | 249° |
| 2026-04-20 07:03 | 59.39908 | 17.15949 | 36413 ft | 477 kts | 249° |
| 2026-04-20 07:04 | 59.37465 | 17.03791 | 36411 ft | 477 kts | 249° |
| 2026-04-20 07:04 | 59.35023 | 16.91740 | 36426 ft | 477 kts | 248° |
| 2026-04-20 07:05 | 59.32555 | 16.79630 | 36434 ft | 477 kts | 248° |
| 2026-04-20 07:05 | 59.30010 | 16.67607 | 36433 ft | 477 kts | 248° |
| 2026-04-20 07:06 | 59.27493 | 16.55668 | 36429 ft | 477 kts | 247° |
| 2026-04-20 07:06 | 59.24947 | 16.43660 | 36423 ft | 477 kts | 247° |
| 2026-04-20 07:07 | 59.22403 | 16.31754 | 36433 ft | 477 kts | 247° |
| 2026-04-20 07:07 | 59.19826 | 16.19768 | 36428 ft | 477 kts | 247° |
| 2026-04-20 07:08 | 59.17244 | 16.07850 | 36446 ft | 477 kts | 247° |
| 2026-04-20 07:08 | 59.14671 | 15.96017 | 36443 ft | 477 kts | 246° |
| 2026-04-20 07:09 | 59.12065 | 15.84100 | 36438 ft | 477 kts | 246° |
| 2026-04-20 07:09 | 59.09467 | 15.72292 | 36441 ft | 477 kts | 246° |
| 2026-04-20 07:10 | 59.06841 | 15.60418 | 36440 ft | 477 kts | 246° |
| 2026-04-20 07:10 | 59.04206 | 15.48582 | 36439 ft | 477 kts | 246° |
| 2026-04-20 07:11 | 59.01575 | 15.36832 | 36444 ft | 476 kts | 246° |
| 2026-04-20 07:11 | 58.98921 | 15.25037 | 36446 ft | 475 kts | 246° |
| 2026-04-20 07:12 | 58.96284 | 15.13378 | 36450 ft | 474 kts | 246° |
| 2026-04-20 07:12 | 58.93615 | 15.01644 | 36442 ft | 473 kts | 246° |
| 2026-04-20 07:13 | 58.90947 | 14.89988 | 36440 ft | 473 kts | 246° |
| 2026-04-20 07:13 | 58.88289 | 14.78436 | 36440 ft | 472 kts | 246° |
| 2026-04-20 07:14 | 58.85607 | 14.66829 | 36436 ft | 471 kts | 245° |
| 2026-04-20 07:14 | 58.82934 | 14.55341 | 36431 ft | 471 kts | 245° |
| 2026-04-20 07:15 | 58.80237 | 14.43805 | 36429 ft | 470 kts | 245° |
| 2026-04-20 07:15 | 58.77544 | 14.32353 | 36428 ft | 470 kts | 245° |
| 2026-04-20 07:16 | 58.74826 | 14.20850 | 36425 ft | 470 kts | 245° |
| 2026-04-20 07:16 | 58.72122 | 14.09460 | 36429 ft | 470 kts | 245° |
| 2026-04-20 07:17 | 58.69389 | 13.98014 | 36389 ft | 471 kts | 245° |
| 2026-04-20 07:17 | 58.66636 | 13.86563 | 36365 ft | 471 kts | 244° |
| 2026-04-20 07:18 | 58.63903 | 13.75239 | 35904 ft | 466 kts | 244° |
| 2026-04-20 07:18 | 58.62526 | 13.69551 | 34832 ft | 469 kts | 244° |
| 2026-04-20 07:18 | 58.61146 | 13.63884 | 33783 ft | 468 kts | 243° |
| 2026-04-20 07:18 | 58.59764 | 13.58219 | 32582 ft | 469 kts | 244° |
| 2026-04-20 07:19 | 58.58377 | 13.52533 | 31460 ft | 469 kts | 244° |
| 2026-04-20 07:19 | 58.57000 | 13.46897 | 30568 ft | 463 kts | 244° |
| 2026-04-20 07:19 | 58.55640 | 13.41344 | 29178 ft | 466 kts | 244° |
| 2026-04-20 07:19 | 58.54216 | 13.35813 | 28221 ft | 459 kts | 238° |
| 2026-04-20 07:20 | 58.52266 | 13.31032 | 27316 ft | 452 kts | 226° |
| 2026-04-20 07:20 | 58.50085 | 13.26722 | 26443 ft | 446 kts | 223° |
| 2026-04-20 07:20 | 58.47760 | 13.22826 | 25611 ft | 440 kts | 217° |
| 2026-04-20 07:20 | 58.45338 | 13.19275 | 24790 ft | 436 kts | 216° |
| 2026-04-20 07:21 | 58.42952 | 13.15861 | 23953 ft | 433 kts | 216° |
| 2026-04-20 07:21 | 58.40562 | 13.12392 | 23089 ft | 429 kts | 217° |
| 2026-04-20 07:21 | 58.38234 | 13.08871 | 22406 ft | 426 kts | 218° |
| 2026-04-20 07:21 | 58.35914 | 13.05361 | 21752 ft | 424 kts | 217° |
| 2026-04-20 07:22 | 58.33597 | 13.01877 | 21109 ft | 422 kts | 218° |
| 2026-04-20 07:22 | 58.31330 | 12.98471 | 20480 ft | 419 kts | 217° |
| 2026-04-20 07:22 | 58.29050 | 12.95051 | 19858 ft | 415 kts | 217° |
| 2026-04-20 07:22 | 58.26785 | 12.91659 | 19254 ft | 412 kts | 217° |
| 2026-04-20 07:23 | 58.24540 | 12.88298 | 18634 ft | 410 kts | 217° |
| 2026-04-20 07:23 | 58.22298 | 12.84955 | 17946 ft | 407 kts | 217° |
| 2026-04-20 07:23 | 58.20075 | 12.81643 | 17273 ft | 405 kts | 217° |
| 2026-04-20 07:23 | 58.17896 | 12.78398 | 16630 ft | 402 kts | 216° |
| 2026-04-20 07:24 | 58.15702 | 12.75139 | 15981 ft | 399 kts | 216° |
| 2026-04-20 07:24 | 58.13530 | 12.71918 | 15349 ft | 391 kts | 216° |
| 2026-04-20 07:24 | 58.11408 | 12.68768 | 14730 ft | 384 kts | 215° |
| 2026-04-20 07:24 | 58.09323 | 12.65686 | 14162 ft | 376 kts | 215° |
| 2026-04-20 07:25 | 58.07281 | 12.62679 | 13598 ft | 368 kts | 215° |
| 2026-04-20 07:25 | 58.05262 | 12.59708 | 13075 ft | 367 kts | 215° |
| 2026-04-20 07:25 | 58.03248 | 12.56740 | 12538 ft | 365 kts | 214° |
| 2026-04-20 07:25 | 58.01249 | 12.53806 | 12020 ft | 363 kts | 214° |
| 2026-04-20 07:26 | 57.99263 | 12.50887 | 11506 ft | 361 kts | 214° |
| 2026-04-20 07:26 | 57.97287 | 12.47997 | 10992 ft | 358 kts | 214° |
| 2026-04-20 07:26 | 57.95352 | 12.45164 | 10495 ft | 356 kts | 214° |
| 2026-04-20 07:26 | 57.93401 | 12.42317 | 9952 ft | 353 kts | 214° |
| 2026-04-20 07:27 | 57.91483 | 12.39497 | 9569 ft | 341 kts | 214° |
| 2026-04-20 07:27 | 57.89653 | 12.36822 | 9393 ft | 324 kts | 214° |
| 2026-04-20 07:27 | 57.87928 | 12.34311 | 9199 ft | 310 kts | 213° |
| 2026-04-20 07:27 | 57.86247 | 12.31871 | 9029 ft | 299 kts | 213° |
| 2026-04-20 07:28 | 57.84616 | 12.29510 | 8778 ft | 292 kts | 213° |
| 2026-04-20 07:28 | 57.83005 | 12.27188 | 8421 ft | 290 kts | 213° |
| 2026-04-20 07:28 | 57.81412 | 12.24883 | 8149 ft | 289 kts | 213° |
| 2026-04-20 07:28 | 57.79839 | 12.22613 | 7897 ft | 288 kts | 213° |
| 2026-04-20 07:29 | 57.78259 | 12.20335 | 7682 ft | 286 kts | 213° |
| 2026-04-20 07:29 | 57.76682 | 12.18071 | 7461 ft | 284 kts | 213° |
| 2026-04-20 07:29 | 57.75106 | 12.15841 | 7207 ft | 282 kts | 210° |
| 2026-04-20 07:29 | 57.73432 | 12.13972 | 6946 ft | 278 kts | 202° |
| 2026-04-20 07:30 | 57.71722 | 12.12406 | 6715 ft | 276 kts | 200° |
| 2026-04-20 07:30 | 57.69988 | 12.10868 | 6431 ft | 274 kts | 200° |
| 2026-04-20 07:30 | 57.68262 | 12.09351 | 6200 ft | 273 kts | 200° |
| 2026-04-20 07:30 | 57.66545 | 12.07843 | 6006 ft | 272 kts | 200° |
| 2026-04-20 07:31 | 57.64828 | 12.06328 | 5788 ft | 273 kts | 200° |
| 2026-04-20 07:31 | 57.63130 | 12.04783 | 5610 ft | 270 kts | 200° |
| 2026-04-20 07:31 | 57.61424 | 12.03251 | 5324 ft | 272 kts | 201° |
| 2026-04-20 07:31 | 57.59689 | 12.01894 | 5171 ft | 268 kts | 195° |
| 2026-04-20 07:32 | 57.57955 | 12.00827 | 5098 ft | 264 kts | 192° |
| 2026-04-20 07:32 | 57.56204 | 11.99851 | 5077 ft | 260 kts | 192° |
| 2026-04-20 07:32 | 57.54478 | 11.98903 | 5062 ft | 254 kts | 191° |
| 2026-04-20 07:32 | 57.52819 | 11.97974 | 4882 ft | 246 kts | 191° |
| 2026-04-20 07:33 | 57.51171 | 11.97289 | 4514 ft | 239 kts | 173° |
| 2026-04-20 07:33 | 57.50126 | 11.97730 | 4343 ft | 229 kts | 152° |
| 2026-04-20 07:33 | 57.48745 | 11.99134 | 4093 ft | 225 kts | 142° |
| 2026-04-20 07:33 | 57.47450 | 12.01946 | 3821 ft | 217 kts | 101° |
| 2026-04-20 07:34 | 57.47469 | 12.04629 | 3855 ft | 201 kts | 85° |
| 2026-04-20 07:34 | 57.47551 | 12.06345 | 3860 ft | 192 kts | 87° |
| 2026-04-20 07:34 | 57.47639 | 12.08697 | 3750 ft | 182 kts | 87° |
| 2026-04-20 07:35 | 57.48968 | 12.12422 | 3291 ft | 200 kts | 20° |
| 2026-04-20 07:35 | 57.50376 | 12.12600 | 3149 ft | 203 kts | 7° |
| 2026-04-20 07:35 | 57.51753 | 12.12815 | 3060 ft | 192 kts | 25° |
| 2026-04-20 07:35 | 57.52900 | 12.13823 | 3117 ft | 184 kts | 40° |
| 2026-04-20 07:36 | 57.53996 | 12.15217 | 3164 ft | 200 kts | 41° |
| 2026-04-20 07:36 | 57.55215 | 12.16778 | 2953 ft | 216 kts | 39° |
| 2026-04-20 07:36 | 57.56454 | 12.18250 | 2828 ft | 204 kts | 39° |
| 2026-04-20 07:36 | 57.57671 | 12.19567 | 2289 ft | 201 kts | 39° |
| 2026-04-20 07:37 | 57.58829 | 12.20927 | 1795 ft | 193 kts | 38° |
| 2026-04-20 07:37 | 57.59957 | 12.22200 | 1386 ft | 184 kts | 34° |
| 2026-04-20 07:37 | 57.61045 | 12.23146 | 1230 ft | 159 kts | 27° |
| 2026-04-20 07:37 | 57.61915 | 12.23928 | 1125 ft | 122 kts | 33° |
| 2026-04-20 07:38 | 57.62629 | 12.24651 | 921 ft | 122 kts | 30° |
| 2026-04-20 07:38 | 57.63426 | 12.25372 | 842 ft | 132 kts | 28° |
| 2026-04-20 07:38 | 57.64243 | 12.26092 | 686 ft | 128 kts | 29° |
| 2026-04-20 07:38 | 57.65018 | 12.26813 | 518 ft | 122 kts | 30° |
| 2026-04-20 07:39 | 57.65692 | 12.27440 | 501 ft | 89 kts | 27° |
| 2026-04-20 07:39 | 57.66157 | 12.27866 | 507 ft | 64 kts | 25° |
| 2026-04-20 07:39 | 57.66503 | 12.28184 | 510 ft | 43 kts | 27° |
| 2026-04-20 07:39 | 57.66667 | 12.28445 | 510 ft | 27 kts | 53° |
| 2026-04-20 07:40 | 57.66764 | 12.28707 | 511 ft | 21 kts | 57° |
| 2026-04-20 07:40 | 57.66870 | 12.28860 | 511 ft | 18 kts | 24° |
| 2026-04-20 07:40 | 57.66977 | 12.28957 | 512 ft | 17 kts | 26° |
| 2026-04-20 07:40 | 57.67037 | 12.29087 | 512 ft | 12 kts | 105° |
| 2026-04-20 07:41 | 57.67012 | 12.29191 | 514 ft | 3 kts | 116° |
| 2026-04-20 07:41 | 57.67006 | 12.29218 | 514 ft | 3 kts | 116° |
| 2026-04-20 07:41 | 57.66999 | 12.29245 | 514 ft | 4 kts | 116° |
| 2026-04-20 07:41 | 57.66987 | 12.29300 | 514 ft | 5 kts | 99° |
| 2026-04-20 07:42 | 57.67003 | 12.29371 | 514 ft | 7 kts | 31° |
| 2026-04-20 07:42 | 57.67035 | 12.29419 | 514 ft | 2 kts | 80° |
| 2026-04-20 07:42 | 57.67033 | 12.29428 | 514 ft | 3 kts | 116° |
| 2026-04-20 07:42 | 57.67018 | 12.29483 | 514 ft | 5 kts | 116° |
| 2026-04-20 07:43 | 57.67009 | 12.29519 | 514 ft | 1 kts | 115° |
| 2026-04-20 07:43 | 57.67008 | 12.29521 | 514 ft | 0 kts | 115° |
| 2026-04-20 07:43 | 57.67007 | 12.29525 | 514 ft | 0 kts | 115° |